Portada
METAR-TAF:

METAR-TAF

Aeroports :

Tanabe, Japó

latitud: 33-44N, longitud: 135-23E, altitud: 105 m

Observació

L'informe es va fer fa 9 hores i 52 minuts, a les 10:00 UTC
Vent 9 kt del Nord-Oest
Temperatura 22°C
Humitat 94%
Pressió 1002 hPa
Visibilitat 10 km o més
Escasses núvols a una alçada de 800 ft
Núvols disperses a una alçada de 1000 ft
Cel ennuvolat a una alçada de 5000 ft
xàfecs en les proximitats

METAR: RJBD 251000Z 32009KT 9999 VCSH FEW008 SCT010 BKN050 22/21 Q1002

Hora: 04:52 (19:52 UTC)


TAF: manca

Observacions i pronòstics meteorològics de més de 4000 aeroports (METAR i TAF).

Les estacions disponibles són els punts grocs i vermells al mapa.

Posi el ratolí al punt desitjat per veure el nom de l'estació.

Feu clic per veure les observacions i els pronòstics meteorològics.

Per canviar el mapa: feu clic els botons verds amb una creu de color negre per apropar; al botó verd amb un guió per allunyar la imatge; o en les fletxes verdes per a mapes adjacents.


METAR-TAF: